Time;durP1;ratioP1;P1;durP2;ratioP2;P2;SDS_P1;SDS_P2;PMS_P1;PMS_P2;Temp;Humidity;BMP_temperature;BMP_pressure;BME280_temperature;BME280_humidity;BME280_pressure;Samples;Min_cycle;Max_cycle;Signal;HPM_P1;HPM_P2
2022/03/30 00:00:36;;;;;;;55.73;32.70;;;8.60;52.90;;;;;;5036336;28;20451;-82
2022/03/30 00:03:04;;;;;;;51.60;32.93;;;8.70;54.10;;;;;;5036956;28;20537;-81
2022/03/30 00:05:32;;;;;;;44.83;30.97;;;8.60;55.40;;;;;;5037380;28;20955;-81
2022/03/30 00:07:59;;;;;;;51.03;30.00;;;8.60;55.20;;;;;;5037276;28;20458;-81
2022/03/30 00:10:28;;;;;;;48.37;31.80;;;8.60;56.70;;;;;;5035957;28;20456;-81
2022/03/30 00:12:56;;;;;;;48.33;30.70;;;8.50;55.10;;;;;;5037368;28;20452;-81
2022/03/30 00:15:24;;;;;;;45.10;28.40;;;8.50;55.40;;;;;;5036871;28;20538;-81
2022/03/30 00:17:52;;;;;;;50.30;30.93;;;8.60;55.20;;;;;;5036916;28;20452;-81
2022/03/30 00:20:19;;;;;;;49.07;32.10;;;8.60;55.50;;;;;;5036595;28;21003;-81
2022/03/30 00:22:48;;;;;;;50.03;28.80;;;8.60;54.90;;;;;;5036587;28;20555;-81
2022/03/30 00:25:15;;;;;;;61.10;33.20;;;8.70;54.60;;;;;;5036046;28;20477;-81
2022/03/30 00:27:43;;;;;;;54.53;34.10;;;8.70;53.50;;;;;;5036410;28;20510;-83
2022/03/30 00:30:13;;;;;;;55.10;32.20;;;8.70;53.90;;;;;;5036017;28;20535;-80
2022/03/30 00:32:39;;;;;;;45.13;31.57;;;8.60;52.90;;;;;;5036044;28;20452;-81
2022/03/30 00:35:07;;;;;;;47.37;30.30;;;8.60;53.30;;;;;;5036124;28;20480;-81
2022/03/30 00:37:34;;;;;;;42.63;29.93;;;8.60;52.50;;;;;;5036336;28;20452;-81
2022/03/30 00:40:03;;;;;;;48.53;30.57;;;8.60;52.70;;;;;;5035869;28;20476;-81
2022/03/30 00:42:30;;;;;;;48.07;30.83;;;8.60;52.30;;;;;;5036393;28;20968;-82
2022/03/30 00:44:57;;;;;;;48.00;30.27;;;8.60;53.40;;;;;;5035975;28;20843;-81
2022/03/30 00:47:26;;;;;;;46.93;30.30;;;8.70;52.40;;;;;;5037044;28;20957;-81
2022/03/30 00:49:54;;;;;;;48.13;29.83;;;8.70;52.00;;;;;;5035948;28;20463;-81
2022/03/30 00:52:21;;;;;;;48.43;31.50;;;8.50;52.20;;;;;;5036965;28;20507;-81
2022/03/30 00:54:51;;;;;;;49.30;29.40;;;8.60;53.80;;;;;;5036941;28;20467;-81
2022/03/30 00:57:23;;;;;;;47.57;32.73;;;8.50;55.20;;;;;;5036123;28;20456;-81
2022/03/30 00:59:51;;;;;;;44.90;28.80;;;8.50;54.70;;;;;;5034485;28;20472;-81
2022/03/30 01:02:19;;;;;;;47.77;30.33;;;8.70;55.50;;;;;;5035345;28;20452;-81
2022/03/30 01:04:46;;;;;;;46.40;30.23;;;8.50;55.80;;;;;;5035479;28;20456;-81
2022/03/30 01:07:13;;;;;;;53.37;32.10;;;8.50;54.20;;;;;;5038343;28;20575;-81
2022/03/30 01:09:40;;;;;;;42.20;24.07;;;8.40;53.50;;;;;;5039418;28;20444;-81
2022/03/30 01:12:09;;;;;;;43.43;23.83;;;8.50;52.60;;;;;;5040256;28;20467;-80
2022/03/30 01:14:39;;;;;;;46.30;28.13;;;8.60;52.20;;;;;;5039037;28;20467;-80
2022/03/30 01:17:07;;;;;;;48.57;28.20;;;8.60;53.20;;;;;;5039934;28;20448;-83
2022/03/30 01:19:35;;;;;;;37.70;22.67;;;8.50;54.50;;;;;;5038539;28;20479;-80
2022/03/30 01:22:05;;;;;;;49.80;25.50;;;8.50;54.90;;;;;;5020512;28;20444;-80
2022/03/30 01:24:32;;;;;;;37.13;24.67;;;8.40;54.10;;;;;;5036518;28;20476;-83
2022/03/30 01:26:59;;;;;;;38.47;23.30;;;8.30;54.70;;;;;;5039549;28;20805;-81
2022/03/30 01:32:27;;;;;;;42.20;25.80;;;8.30;56.70;;;;;;5039000;28;20475;-80
2022/03/30 01:34:55;;;;;;;49.90;30.67;;;8.20;65.20;;;;;;5038205;28;20467;-81
2022/03/30 01:37:23;;;;;;;47.63;27.30;;;8.10;63.10;;;;;;5037536;28;20463;-81
2022/03/30 01:39:50;;;;;;;40.30;26.70;;;7.80;63.00;;;;;;5037815;28;20475;-80
2022/03/30 01:42:17;;;;;;;50.90;30.17;;;7.90;60.20;;;;;;5037023;28;20523;-80
2022/03/30 01:44:47;;;;;;;44.87;27.33;;;7.90;61.50;;;;;;5037145;28;20448;-80
2022/03/30 01:47:13;;;;;;;49.73;31.40;;;7.80;60.30;;;;;;5037521;28;20456;-82
2022/03/30 01:49:41;;;;;;;46.73;29.77;;;7.80;63.00;;;;;;5036537;28;20448;-80
2022/03/30 01:52:09;;;;;;;45.67;27.37;;;7.80;62.50;;;;;;5037347;28;20975;-81
2022/03/30 01:54:39;;;;;;;47.60;29.13;;;7.80;64.60;;;;;;5037054;28;20490;-82
2022/03/30 01:57:07;;;;;;;53.67;31.13;;;7.80;64.30;;;;;;5037687;28;20452;-80
2022/03/30 01:59:34;;;;;;;49.47;28.47;;;7.80;63.80;;;;;;5036892;28;20471;-80
2022/03/30 02:02:02;;;;;;;46.70;29.27;;;7.80;61.20;;;;;;5037058;28;20971;-80
2022/03/30 02:04:29;;;;;;;46.70;28.60;;;7.90;60.10;;;;;;5036936;28;20452;-80
2022/03/30 02:06:56;;;;;;;46.43;26.00;;;7.80;60.00;;;;;;5037454;28;20471;-80
2022/03/30 02:09:23;;;;;;;31.83;20.63;;;7.90;58.50;;;;;;5036630;28;20449;-81
2022/03/30 02:11:54;;;;;;;39.73;25.00;;;8.00;57.00;;;;;;5037120;28;20452;-80
2022/03/30 02:14:21;;;;;;;43.87;27.70;;;7.90;56.70;;;;;;5037104;28;21016;-80
2022/03/30 02:16:48;;;;;;;41.10;25.60;;;7.90;60.20;;;;;;5036636;28;20472;-80
2022/03/30 02:19:14;;;;;;;55.00;27.87;;;7.90;57.90;;;;;;5036903;28;20498;-80
2022/03/30 02:21:41;;;;;;;46.43;28.57;;;7.80;59.30;;;;;;5036755;28;20480;-82
2022/03/30 02:24:08;;;;;;;42.93;28.00;;;7.90;59.20;;;;;;5037003;28;20514;-80
2022/03/30 02:26:35;;;;;;;45.03;27.50;;;7.80;57.30;;;;;;5037012;28;20472;-80
2022/03/30 02:29:03;;;;;;;47.13;27.50;;;7.80;58.10;;;;;;5036556;28;20475;-81
2022/03/30 02:31:30;;;;;;;40.87;19.47;;;7.90;57.20;;;;;;5036857;28;20459;-81
2022/03/30 02:33:56;;;;;;;41.60;23.43;;;7.90;56.10;;;;;;5037028;28;20454;-80
2022/03/30 02:36:23;;;;;;;50.57;29.83;;;7.80;56.90;;;;;;5036977;28;20487;-80
2022/03/30 02:38:51;;;;;;;47.10;25.03;;;7.80;56.70;;;;;;5036561;28;20520;-83
2022/03/30 02:41:17;;;;;;;35.07;18.30;;;7.80;56.30;;;;;;5036907;28;20452;-80
2022/03/30 02:43:44;;;;;;;38.03;22.77;;;7.80;55.40;;;;;;5036642;28;20459;-83
2022/03/30 02:46:12;;;;;;;43.03;25.80;;;7.90;55.80;;;;;;5037009;28;20472;-81
2022/03/30 02:48:40;;;;;;;50.10;29.17;;;7.80;57.10;;;;;;5035862;28;20823;-80
2022/03/30 02:51:08;;;;;;;40.03;27.40;;;7.90;57.70;;;;;;5036873;28;21076;-80
2022/03/30 02:53:35;;;;;;;57.93;31.47;;;7.70;57.90;;;;;;5036144;28;20527;-81
2022/03/30 02:56:02;;;;;;;56.03;29.43;;;7.60;58.50;;;;;;5036561;28;20548;-80
2022/03/30 02:58:30;;;;;;;50.67;32.03;;;7.50;59.80;;;;;;5036217;28;20459;-83
2022/03/30 03:00:56;;;;;;;42.67;28.20;;;7.40;60.10;;;;;;5036074;28;20843;-80
2022/03/30 03:03:26;;;;;;;52.13;28.70;;;7.40;60.70;;;;;;5036006;28;20933;-80
2022/03/30 03:05:53;;;;;;;53.90;32.63;;;7.30;61.10;;;;;;5036046;28;20829;-80
2022/03/30 03:08:19;;;;;;;49.43;30.73;;;7.40;59.70;;;;;;5036073;28;20465;-80
2022/03/30 03:10:50;;;;;;;46.73;29.07;;;7.30;61.10;;;;;;5036208;28;20448;-81
2022/03/30 03:13:18;;;;;;;50.80;28.27;;;7.20;60.20;;;;;;5036519;28;20908;-80
2022/03/30 03:15:46;;;;;;;52.60;31.33;;;7.20;61.30;;;;;;5036185;28;20472;-80
2022/03/30 03:18:14;;;;;;;52.50;30.70;;;7.10;62.90;;;;;;5035854;28;20831;-80
2022/03/30 03:20:44;;;;;;;47.50;29.20;;;7.10;62.70;;;;;;5035277;28;20502;-82
2022/03/30 03:23:12;;;;;;;55.50;28.80;;;7.10;63.60;;;;;;5036096;28;20451;-80
2022/03/30 03:25:40;;;;;;;43.00;28.50;;;6.90;64.70;;;;;;5035560;28;20480;-81
2022/03/30 03:28:08;;;;;;;47.27;28.87;;;6.90;64.60;;;;;;5035566;28;20495;-79
2022/03/30 03:30:35;;;;;;;49.00;30.30;;;7.00;64.80;;;;;;5035807;28;20967;-80
2022/03/30 03:33:02;;;;;;;52.67;30.50;;;6.90;65.10;;;;;;5036955;28;20540;-80
2022/03/30 03:35:30;;;;;;;52.33;29.67;;;6.90;65.00;;;;;;5036598;28;20487;-81
2022/03/30 03:37:58;;;;;;;50.87;29.30;;;6.80;66.40;;;;;;5037207;28;20894;-81
2022/03/30 03:40:25;;;;;;;49.90;30.27;;;6.60;67.10;;;;;;5036665;28;21003;-81
2022/03/30 03:42:52;;;;;;;53.97;30.00;;;6.60;67.20;;;;;;5036669;28;20456;-81
2022/03/30 03:45:19;;;;;;;51.83;32.40;;;6.60;68.80;;;;;;5034996;28;20480;-80
2022/03/30 03:47:47;;;;;;;52.67;33.97;;;6.60;71.80;;;;;;5036462;28;20456;-83
2022/03/30 03:50:14;;;;;;;55.17;33.23;;;6.50;72.90;;;;;;5035171;28;20445;-81
2022/03/30 03:52:43;;;;;;;49.63;33.33;;;6.40;74.90;;;;;;5035342;28;20456;-80
2022/03/30 03:55:14;;;;;;;54.40;35.10;;;6.30;76.60;;;;;;5035545;28;20499;-80
2022/03/30 03:57:42;;;;;;;51.77;35.17;;;6.30;79.10;;;;;;5035673;28;20828;-81
2022/03/30 04:00:11;;;;;;;64.23;37.90;;;6.30;80.80;;;;;;5035737;28;20988;-81
2022/03/30 04:02:40;;;;;;;59.83;40.73;;;6.20;82.00;;;;;;5039016;28;20448;-81
2022/03/30 04:05:08;;;;;;;58.07;36.10;;;6.20;83.20;;;;;;5035280;28;20476;-80
2022/03/30 04:07:39;;;;;;;69.83;38.17;;;6.10;82.20;;;;;;5040491;28;20452;-83
2022/03/30 04:10:07;;;;;;;53.30;35.53;;;6.20;83.00;;;;;;5041575;28;20448;-82
2022/03/30 04:12:35;;;;;;;60.23;37.57;;;6.00;82.40;;;;;;5036650;28;20817;-82
2022/03/30 04:15:02;;;;;;;60.23;42.53;;;6.10;83.10;;;;;;5034009;28;20534;-80
2022/03/30 04:17:29;;;;;;;56.43;45.43;;;6.10;84.70;;;;;;5035559;28;20456;-80
2022/03/30 04:19:56;;;;;;;57.87;47.00;;;6.10;86.20;;;;;;5033015;28;20464;-81
2022/03/30 04:22:23;;;;;;;59.00;48.27;;;6.00;86.90;;;;;;5035385;28;20456;-80
2022/03/30 04:24:50;;;;;;;67.57;60.17;;;6.00;88.50;;;;;;5035854;28;20479;-81
2022/03/30 04:27:17;;;;;;;69.57;62.27;;;6.00;89.80;;;;;;5035110;28;20492;-81
2022/03/30 04:29:45;;;;;;;83.17;73.13;;;6.00;90.00;;;;;;5037400;28;20843;-80
2022/03/30 04:32:12;;;;;;;85.10;77.40;;;6.00;90.50;;;;;;5033384;28;20460;-80
2022/03/30 04:35:13;;;;;;;134.87;125.07;;;5.90;90.80;;;;;;5034689;28;20964;-80
2022/03/30 04:37:49;;;;;;;160.20;149.50;;;5.90;92.60;;;;;;5042869;23;20505;-84
2022/03/30 04:40:15;;;;;;;164.17;153.97;;;5.80;93.90;;;;;;5018777;28;20517;-84
2022/03/30 04:42:42;;;;;;;170.27;159.47;;;5.70;94.10;;;;;;5032017;28;20523;-83
2022/03/30 04:45:10;;;;;;;146.00;135.67;;;5.70;94.40;;;;;;5037061;28;20448;-84
2022/03/30 04:47:38;;;;;;;187.57;176.27;;;5.60;94.90;;;;;;5022377;28;20544;-84
2022/03/30 04:50:06;;;;;;;150.93;141.33;;;5.70;95.70;;;;;;5025677;28;20448;-84
2022/03/30 04:52:33;;;;;;;181.23;170.13;;;5.70;95.80;;;;;;5039779;28;20453;-84
2022/03/30 04:55:00;;;;;;;213.53;201.57;;;5.70;96.00;;;;;;5028226;28;20472;-84
2022/03/30 04:57:26;;;;;;;241.07;227.67;;;5.70;96.40;;;;;;5035637;28;20476;-84
2022/03/30 04:59:53;;;;;;;252.30;238.50;;;5.70;97.50;;;;;;5038684;28;20839;-84
2022/03/30 05:02:22;;;;;;;278.43;263.97;;;5.70;98.40;;;;;;5023074;28;21052;-84
2022/03/30 05:04:48;;;;;;;281.20;266.47;;;5.60;98.90;;;;;;5037976;28;20463;-84
2022/03/30 05:07:15;;;;;;;266.93;253.10;;;5.70;99.00;;;;;;5023200;28;20487;-85
2022/03/30 05:09:42;;;;;;;196.17;185.13;;;5.50;99.10;;;;;;5024565;28;20535;-85
2022/03/30 05:12:10;;;;;;;159.57;147.63;;;5.60;99.10;;;;;;5030633;28;20449;-85
2022/03/30 05:14:37;;;;;;;126.13;116.20;;;5.60;98.30;;;;;;5031669;28;20457;-85
2022/03/30 05:17:04;;;;;;;109.17;100.50;;;5.60;96.80;;;;;;5031455;28;20468;-84
2022/03/30 05:19:32;;;;;;;72.37;65.27;;;5.60;96.40;;;;;;5036997;28;20449;-85
2022/03/30 05:21:59;;;;;;;83.70;75.67;;;5.60;95.40;;;;;;5038347;28;20476;-85
2022/03/30 05:24:26;;;;;;;64.37;57.60;;;5.60;95.30;;;;;;5034038;28;20477;-85
2022/03/30 05:26:53;;;;;;;68.97;61.83;;;5.50;94.50;;;;;;5026947;28;20559;-84
2022/03/30 05:29:20;;;;;;;74.70;66.90;;;5.60;94.80;;;;;;5030018;28;20448;-85
2022/03/30 05:31:47;;;;;;;62.53;50.27;;;5.70;94.60;;;;;;5030418;28;20458;-84
2022/03/30 05:34:14;;;;;;;66.37;59.53;;;5.70;94.20;;;;;;5026156;28;20543;-85
2022/03/30 05:36:42;;;;;;;98.30;89.80;;;5.70;94.40;;;;;;5023128;28;20477;-85
2022/03/30 05:39:08;;;;;;;132.07;122.83;;;5.60;95.40;;;;;;5018528;28;20842;-84
2022/03/30 05:41:36;;;;;;;128.97;119.47;;;5.60;96.20;;;;;;5028659;28;20468;-85
2022/03/30 05:44:03;;;;;;;148.80;138.57;;;5.60;96.40;;;;;;5032628;28;20452;-87
2022/03/30 05:46:30;;;;;;;170.57;159.20;;;5.60;96.40;;;;;;5029367;28;20843;-85
2022/03/30 05:48:57;;;;;;;184.77;173.10;;;5.60;96.70;;;;;;5024292;28;20463;-84
2022/03/30 05:51:24;;;;;;;212.90;201.17;;;5.60;97.30;;;;;;5026826;28;20444;-85
2022/03/30 05:53:52;;;;;;;183.73;171.00;;;5.70;98.20;;;;;;5029250;28;20507;-85
2022/03/30 05:56:59;;;;;;;177.80;167.00;;;5.60;97.50;;;;;;5036030;28;20840;-85
2022/03/30 05:59:05;;;;;;;186.50;175.20;;;5.70;98.00;;;;;;5004762;28;20446;-85
2022/03/30 06:01:32;;;;;;;200.37;188.80;;;5.70;98.40;;;;;;5035239;28;20481;-84
2022/03/30 06:03:59;;;;;;;237.40;224.67;;;5.60;98.40;;;;;;5022918;28;20453;-85
2022/03/30 06:06:25;;;;;;;277.17;262.70;;;5.70;99.00;;;;;;5026288;28;20479;-84
2022/03/30 06:08:53;;;;;;;282.13;267.37;;;5.60;99.40;;;;;;5026826;28;20839;-82
2022/03/30 06:11:20;;;;;;;285.40;270.63;;;5.50;99.40;;;;;;5033656;28;20797;-85
2022/03/30 06:13:47;;;;;;;303.27;287.60;;;5.50;99.60;;;;;;5027198;28;20456;-83
2022/03/30 06:16:15;;;;;;;320.60;303.40;;;5.50;99.90;;;;;;5024550;28;20469;-86
2022/03/30 06:18:43;;;;;;;320.23;303.90;;;5.40;99.90;;;;;;5028489;28;20453;-85
2022/03/30 06:21:10;;;;;;;356.47;337.57;;;5.40;99.90;;;;;;5033547;28;20473;-85
2022/03/30 06:23:37;;;;;;;340.03;322.33;;;5.30;99.90;;;;;;5024307;28;20449;-86
2022/03/30 06:26:06;;;;;;;378.17;358.90;;;5.40;99.90;;;;;;5043043;28;20468;-85
2022/03/30 06:28:32;;;;;;;348.33;329.63;;;5.40;99.90;;;;;;5032261;28;20484;-85
2022/03/30 06:30:59;;;;;;;318.07;301.27;;;5.70;99.90;;;;;;5045526;28;20455;-85
2022/03/30 06:33:26;;;;;;;290.93;275.43;;;5.80;99.90;;;;;;5032755;28;20453;-85
2022/03/30 06:35:53;;;;;;;307.97;291.37;;;5.90;99.90;;;;;;5041270;28;20452;-85
2022/03/30 06:38:19;;;;;;;179.40;167.57;;;6.00;99.90;;;;;;5046008;28;20464;-85
2022/03/30 06:40:47;;;;;;;104.90;96.67;;;6.10;98.60;;;;;;5046774;28;20476;-85
2022/03/30 06:43:15;;;;;;;128.00;117.90;;;6.20;97.40;;;;;;5045297;28;20457;-85
2022/03/30 06:45:43;;;;;;;95.73;86.20;;;6.20;97.80;;;;;;5042599;28;20452;-84
2022/03/30 06:48:11;;;;;;;76.43;68.53;;;6.30;96.60;;;;;;5043656;28;20450;-85
2022/03/30 06:50:38;;;;;;;71.90;53.67;;;6.30;95.90;;;;;;5040005;28;20467;-86
2022/03/30 06:53:07;;;;;;;74.33;65.03;;;6.30;94.60;;;;;;5026649;28;20453;-83
2022/03/30 06:55:34;;;;;;;57.30;45.40;;;6.40;94.60;;;;;;5034256;28;20488;-83
2022/03/30 06:58:01;;;;;;;71.50;58.80;;;6.50;94.70;;;;;;5035123;28;20532;-83
2022/03/30 07:00:29;;;;;;;72.57;40.07;;;6.50;94.90;;;;;;5029030;28;20457;-83
2022/03/30 07:02:55;;;;;;;54.30;32.23;;;6.70;92.30;;;;;;5045385;28;20448;-83
2022/03/30 07:05:22;;;;;;;65.97;32.40;;;6.90;90.20;;;;;;5031419;28;20457;-80
2022/03/30 07:10:35;;;;;;;45.53;27.50;;;7.20;85.70;;;;;;5027388;28;20973;-83
2022/03/30 07:13:03;;;;;;;49.43;27.87;;;7.30;84.10;;;;;;5038554;28;20449;-83
2022/03/30 07:15:32;;;;;;;35.87;19.03;;;7.40;84.20;;;;;;5032341;28;20449;-83
2022/03/30 07:18:00;;;;;;;53.27;30.30;;;7.30;82.90;;;;;;5021862;28;20473;-82
2022/03/30 07:20:28;;;;;;;78.13;27.03;;;7.30;79.10;;;;;;5036936;28;20453;-82
2022/03/30 07:22:57;;;;;;;58.67;28.90;;;7.20;75.50;;;;;;5030173;28;20916;-82
2022/03/30 07:25:25;;;;;;;42.63;20.90;;;7.40;77.50;;;;;;5042522;28;20452;-82
2022/03/30 07:27:53;;;;;;;46.77;23.67;;;7.40;75.70;;;;;;5036407;28;20469;-83
2022/03/30 07:30:21;;;;;;;39.90;22.50;;;7.60;75.90;;;;;;5025056;28;20449;-82
2022/03/30 07:32:51;;;;;;;36.40;21.13;;;7.60;73.10;;;;;;5043486;28;20449;-82
2022/03/30 07:35:20;;;;;;;48.03;29.63;;;7.60;73.50;;;;;;5042481;28;20474;-82
2022/03/30 07:37:47;;;;;;;50.43;23.73;;;7.50;71.30;;;;;;5042909;28;20835;-82
2022/03/30 07:40:17;;;;;;;42.47;23.77;;;7.70;69.00;;;;;;5041327;28;20462;-82
2022/03/30 07:42:45;;;;;;;57.60;29.73;;;7.80;70.90;;;;;;5028709;28;21234;-81
2022/03/30 07:45:12;;;;;;;38.57;21.00;;;7.70;69.50;;;;;;5027252;28;20198;-82
2022/03/30 07:47:39;;;;;;;57.40;29.87;;;7.90;67.20;;;;;;5022182;28;20481;-81
2022/03/30 07:50:08;;;;;;;42.77;22.30;;;8.20;65.70;;;;;;5023231;28;20457;-81
2022/03/30 07:52:35;;;;;;;45.73;27.17;;;8.00;65.20;;;;;;5022940;28;20446;-81
2022/03/30 07:55:03;;;;;;;46.13;28.87;;;8.20;64.20;;;;;;5022699;28;20453;-81
2022/03/30 07:57:29;;;;;;;50.90;27.33;;;8.20;66.40;;;;;;5022322;28;20469;-81
2022/03/30 07:59:57;;;;;;;47.37;26.83;;;8.20;63.30;;;;;;5023362;28;20457;-82
2022/03/30 08:02:25;;;;;;;43.07;23.50;;;8.30;64.70;;;;;;5023669;28;20477;-81
2022/03/30 08:04:52;;;;;;;35.20;19.80;;;8.30;61.80;;;;;;5022669;28;20465;-81
2022/03/30 08:07:21;;;;;;;37.87;19.87;;;8.30;60.70;;;;;;5023939;28;20480;-81
2022/03/30 08:09:48;;;;;;;43.47;20.23;;;8.20;60.40;;;;;;5022534;28;20476;-81
2022/03/30 08:12:15;;;;;;;40.37;24.80;;;8.50;60.60;;;;;;5023273;28;20838;-82
2022/03/30 08:14:43;;;;;;;41.90;27.20;;;8.80;61.80;;;;;;5022303;28;20457;-81
2022/03/30 08:17:09;;;;;;;54.33;28.63;;;8.90;58.10;;;;;;5022577;28;20488;-82
2022/03/30 08:19:36;;;;;;;45.70;25.50;;;9.20;55.80;;;;;;5022822;28;20805;-82
2022/03/30 08:24:49;;;;;;;40.87;26.40;;;9.20;53.20;;;;;;5022047;28;20537;-81
2022/03/30 08:27:18;;;;;;;47.00;24.30;;;9.20;53.10;;;;;;5022063;28;20480;-81
2022/03/30 08:29:45;;;;;;;47.43;27.93;;;9.20;51.50;;;;;;5021257;28;20461;-81
2022/03/30 08:32:13;;;;;;;40.20;24.60;;;9.40;53.20;;;;;;5018970;28;20485;-82
2022/03/30 08:34:40;;;;;;;42.03;25.90;;;9.40;51.10;;;;;;5021982;28;20449;-81
2022/03/30 08:37:07;;;;;;;43.53;24.20;;;9.70;51.60;;;;;;5021563;28;20481;-82
2022/03/30 08:39:35;;;;;;;37.77;24.80;;;9.90;46.90;;;;;;5019922;28;20445;-81
2022/03/30 08:42:05;;;;;;;40.33;22.10;;;9.90;46.00;;;;;;5020003;28;20539;-81
2022/03/30 08:44:33;;;;;;;41.73;24.30;;;9.80;44.50;;;;;;5020378;28;20464;-82
2022/03/30 08:47:01;;;;;;;51.47;22.53;;;10.20;44.10;;;;;;5020014;28;20473;-82
2022/03/30 08:49:33;;;;;;;36.23;20.03;;;10.40;40.30;;;;;;5019989;28;20457;-82
2022/03/30 08:52:00;;;;;;;46.70;26.20;;;10.40;38.30;;;;;;5019116;28;20459;-81
2022/03/30 08:54:27;;;;;;;36.97;22.20;;;10.50;37.60;;;;;;5020536;28;20839;-81
2022/03/30 08:56:54;;;;;;;32.93;19.30;;;10.40;36.50;;;;;;5020217;28;21004;-81
2022/03/30 08:59:24;;;;;;;36.60;22.13;;;10.40;35.50;;;;;;5020493;28;20453;-82
2022/03/30 09:01:54;;;;;;;43.70;21.50;;;10.60;35.60;;;;;;5019677;28;20477;-82
2022/03/30 09:04:22;;;;;;;40.77;20.10;;;11.00;35.90;;;;;;5018624;28;20457;-81
2022/03/30 09:06:50;;;;;;;33.10;21.90;;;11.30;33.20;;;;;;5018074;28;20477;-82
2022/03/30 09:09:27;;;;;;;34.50;18.17;;;11.00;33.90;;;;;;5019255;28;20458;-82
2022/03/30 09:11:55;;;;;;;41.67;21.27;;;11.00;30.80;;;;;;5018934;28;20448;-81
2022/03/30 09:14:25;;;;;;;33.50;21.93;;;11.20;31.80;;;;;;5024390;28;20449;-81
2022/03/30 09:16:55;;;;;;;39.63;23.50;;;11.80;30.40;;;;;;5035166;28;20503;-81
2022/03/30 09:19:23;;;;;;;37.43;21.00;;;11.60;30.00;;;;;;5025407;28;20457;-82
2022/03/30 09:21:51;;;;;;;31.33;20.03;;;11.70;28.20;;;;;;5022749;28;20473;-84
2022/03/30 09:24:20;;;;;;;34.57;18.00;;;11.60;28.10;;;;;;5024221;28;20449;-83
2022/03/30 09:26:48;;;;;;;27.47;18.80;;;11.90;26.70;;;;;;5021667;28;20468;-84
2022/03/30 09:29:15;;;;;;;25.63;15.20;;;12.10;23.70;;;;;;5039171;28;20457;-82
2022/03/30 09:31:44;;;;;;;32.40;19.00;;;11.90;23.70;;;;;;5027117;28;20479;-83
2022/03/30 09:34:13;;;;;;;30.17;19.03;;;12.00;24.70;;;;;;5029163;28;20472;-82
2022/03/30 09:36:41;;;;;;;31.60;20.17;;;12.90;23.70;;;;;;5036047;28;20482;-81
2022/03/30 09:39:09;;;;;;;26.70;16.00;;;13.40;22.20;;;;;;5026752;28;20458;-80
2022/03/30 09:41:47;;;;;;;34.20;19.17;;;12.70;19.90;;;;;;5023835;28;20494;-82
2022/03/30 09:44:15;;;;;;;27.30;16.33;;;13.00;20.70;;;;;;5026295;28;20465;-81
2022/03/30 09:46:57;;;;;;;29.07;17.50;;;13.10;17.40;;;;;;5043354;28;20474;-82
2022/03/30 09:49:39;;;;;;;28.83;17.40;;;13.20;17.10;;;;;;5040935;28;20469;-83
2022/03/30 09:52:12;;;;;;;24.03;17.10;;;13.80;18.30;;;;;;5040669;28;20491;-82
2022/03/30 09:54:41;;;;;;;25.10;15.97;;;13.30;17.10;;;;;;5022598;28;20452;-82
2022/03/30 09:57:13;;;;;;;16.00;10.77;;;12.80;16.80;;;;;;5002729;28;20476;-82
2022/03/30 10:00:02;;;;;;;29.03;18.20;;;12.40;18.60;;;;;;5000826;28;20456;-82
2022/03/30 10:02:32;;;;;;;21.90;12.63;;;13.50;17.30;;;;;;5041135;28;20610;-82
2022/03/30 10:05:00;;;;;;;32.33;16.40;;;13.20;14.80;;;;;;5040213;28;20455;-82
2022/03/30 10:07:28;;;;;;;25.03;16.70;;;13.30;17.50;;;;;;5042634;28;20977;-82
2022/03/30 10:09:56;;;;;;;27.40;17.83;;;12.80;16.50;;;;;;5035350;28;20453;-82
2022/03/30 10:12:24;;;;;;;30.17;17.57;;;12.70;17.20;;;;;;5022393;28;20538;-82
2022/03/30 10:14:51;;;;;;;23.80;14.80;;;13.20;17.50;;;;;;5024038;28;20463;-82
2022/03/30 10:17:19;;;;;;;29.70;17.87;;;13.50;17.20;;;;;;5039710;28;20478;-82
2022/03/30 10:19:49;;;;;;;24.77;17.40;;;14.10;14.40;;;;;;5038975;28;20454;-83
2022/03/30 10:22:30;;;;;;;27.03;15.67;;;14.60;13.10;;;;;;5043616;28;20478;-83
2022/03/30 10:25:10;;;;;;;35.73;17.80;;;14.80;11.10;;;;;;5030400;28;20501;-83
2022/03/30 10:27:43;;;;;;;24.87;17.63;;;14.30;11.40;;;;;;5023292;28;20474;-83
2022/03/30 10:30:11;;;;;;;30.90;16.87;;;14.80;10.30;;;;;;5032489;28;20452;-83
2022/03/30 10:32:40;;;;;;;26.73;15.40;;;15.20;11.20;;;;;;5039752;28;20518;-82
2022/03/30 10:35:10;;;;;;;28.10;16.50;;;15.60;8.90;;;;;;5023891;28;20467;-83
2022/03/30 10:37:42;;;;;;;27.00;15.70;;;15.20;8.70;;;;;;5041779;23;20496;-79
2022/03/30 10:40:19;;;;;;;25.60;17.17;;;14.80;8.50;;;;;;5019417;28;20453;-83
2022/03/30 10:43:06;;;;;;;25.20;15.70;;;15.40;8.90;;;;;;5026710;28;21779;-81
2022/03/30 10:45:45;;;;;;;23.43;16.17;;;14.80;9.10;;;;;;5035119;28;20465;-80
2022/03/30 10:48:18;;;;;;;26.80;16.80;;;14.80;7.50;;;;;;5033150;28;20473;-81
2022/03/30 10:50:49;;;;;;;25.60;16.67;;;15.70;5.90;;;;;;5018478;28;20460;-83
2022/03/30 10:53:39;;;;;;;29.33;17.53;;;16.40;6.30;;;;;;5018518;28;20446;-80
2022/03/30 10:56:27;;;;;;;26.27;16.27;;;16.50;4.00;;;;;;5018577;28;20490;-81
2022/03/30 10:59:09;;;;;;;32.17;15.87;;;16.80;2.60;;;;;;5018288;28;21021;-82
2022/03/30 11:01:39;;;;;;;22.90;15.60;;;16.20;5.40;;;;;;5018496;28;20472;-81
2022/03/30 11:04:07;;;;;;;26.37;16.50;;;16.30;3.80;;;;;;5018036;28;20463;-84
2022/03/30 11:06:38;;;;;;;23.80;16.60;;;16.00;1.70;;;;;;5016782;28;20479;-82
2022/03/30 11:09:07;;;;;;;26.73;15.97;;;16.50;2.10;;;;;;5019500;28;20453;-80
2022/03/30 11:11:39;;;;;;;21.67;13.97;;;16.40;1.90;;;;;;5018018;28;20451;-81
2022/03/30 11:14:32;;;;;;;22.80;15.97;;;16.30;1.00;;;;;;5023942;28;20448;-80
2022/03/30 11:17:00;;;;;;;23.53;15.23;;;17.00;2.40;;;;;;5033968;28;20552;-79
2022/03/30 11:19:30;;;;;;;31.10;18.03;;;15.90;1.00;;;;;;5018433;28;20550;-80
2022/03/30 11:22:14;;;;;;;27.03;17.63;;;16.70;2.80;;;;;;5034676;28;20466;-82
2022/03/30 11:24:42;;;;;;;26.23;17.33;;;16.90;1.00;;;;;;5032808;28;20458;-80
2022/03/30 11:27:19;;;;;;;27.47;17.60;;;17.40;1.00;;;;;;5021359;28;20530;-83
2022/03/30 11:30:05;;;;;;;25.60;16.13;;;18.10;1.00;;;;;;5023547;28;20453;-81
2022/03/30 11:33:07;;;;;;;25.00;14.67;;;17.30;1.00;;;;;;5025081;28;20460;-81
2022/03/30 11:35:37;;;;;;;28.27;16.53;;;16.60;2.90;;;;;;5011319;28;20444;-81
2022/03/30 11:38:24;;;;;;;22.57;16.40;;;16.40;1.00;;;;;;5017840;28;20881;-81
2022/03/30 11:40:57;;;;;;;27.67;17.23;;;16.60;1.00;;;;;;5018356;28;20459;-83
2022/03/30 11:43:24;;;;;;;20.17;15.17;;;17.40;1.00;;;;;;5033242;28;20472;-81
2022/03/30 11:45:51;;;;;;;21.67;16.97;;;17.30;1.00;;;;;;5037269;28;20462;-80
2022/03/30 11:48:19;;;;;;;23.70;16.07;;;17.40;1.00;;;;;;5028861;28;20791;-80
2022/03/30 11:50:47;;;;;;;20.57;14.80;;;18.00;1.00;;;;;;5016551;28;20461;-79
2022/03/30 11:53:21;;;;;;;24.07;15.67;;;17.50;1.00;;;;;;5027148;28;20445;-82
2022/03/30 11:55:53;;;;;;;21.77;16.37;;;17.40;1.00;;;;;;5024012;28;20461;-80
2022/03/30 11:58:30;;;;;;;19.10;13.40;;;17.00;1.00;;;;;;5028457;28;20512;-80
2022/03/30 12:00:59;;;;;;;27.23;18.20;;;17.20;1.00;;;;;;5017439;28;20463;-80
2022/03/30 12:03:27;;;;;;;26.13;17.40;;;17.00;1.00;;;;;;5017153;28;20574;-80
2022/03/30 12:05:57;;;;;;;21.20;15.97;;;16.80;1.00;;;;;;5018091;28;20456;-80
2022/03/30 12:08:28;;;;;;;22.83;14.40;;;16.60;1.00;;;;;;5015752;28;20955;-79
2022/03/30 12:10:58;;;;;;;25.37;18.20;;;15.70;1.00;;;;;;5017264;28;20459;-80
2022/03/30 12:13:27;;;;;;;28.03;18.00;;;17.00;1.00;;;;;;5015974;28;20452;-80
2022/03/30 12:16:05;;;;;;;22.47;16.47;;;17.60;1.00;;;;;;5017270;28;20456;-80
2022/03/30 12:18:32;;;;;;;20.67;12.87;;;18.40;1.00;;;;;;5016596;28;20451;-80
2022/03/30 12:21:03;;;;;;;22.50;14.60;;;17.10;1.00;;;;;;5016903;28;20957;-82
2022/03/30 12:23:31;;;;;;;21.63;16.73;;;16.70;1.00;;;;;;5016838;28;20469;-81
2022/03/30 12:26:16;;;;;;;20.67;13.47;;;16.90;1.00;;;;;;5015643;28;20980;-80
2022/03/30 12:28:46;;;;;;;23.93;14.93;;;16.60;1.00;;;;;;5015341;28;20511;-80
2022/03/30 12:31:14;;;;;;;24.80;16.27;;;16.60;1.00;;;;;;5016563;28;20459;-80
2022/03/30 12:33:50;;;;;;;23.00;16.67;;;17.00;1.00;;;;;;5017580;28;20548;-80
2022/03/30 12:36:21;;;;;;;22.30;16.00;;;17.70;1.00;;;;;;5016528;28;20517;-80
2022/03/30 12:38:50;;;;;;;22.63;14.60;;;18.20;1.00;;;;;;5016621;28;20749;-80
2022/03/30 12:41:24;;;;;;;25.60;15.50;;;17.60;1.00;;;;;;5016309;28;20848;-80
2022/03/30 12:44:00;;;;;;;23.80;16.10;;;16.80;1.00;;;;;;5016490;28;20477;-80
2022/03/30 12:46:29;;;;;;;23.60;16.40;;;17.20;1.00;;;;;;5016933;28;20512;-82
2022/03/30 12:49:04;;;;;;;22.33;15.77;;;18.30;1.00;;;;;;5018614;28;20453;-80
2022/03/30 12:51:33;;;;;;;22.43;14.73;;;18.80;1.00;;;;;;5023248;28;20551;-83